Surface Preassure
0:00 UTC
12:00 UTC (Click for larger versions)
Andrewsfield Outlook

Current time:


  02:11:43am (GMT)      02:11:43am (UTC)


Headline: Dry with late sunshine this evening. Heavy rain on Sunday.

This Evening and Tonight: Mainly fine during the evening, especially across eastern areas, with light winds here perhaps allowing a few fog patches to develop. Cloudier in the far west, with spells of rain becoming slow moving. Minimum Temperature 11C.

Sunday: Perhaps starting fine with bright spells in eastern parts after early fog patches clear. However, rain in the west will soon spread eastwards, with some slow-moving heavy downpours developing later. Maximum Temperature 21C.

Outlook for Monday to Wednesday: Becoming drier and brighter on Monday, continuing into Tuesday, but with winds gradually picking up. Generally breezy on Wednesday, with a spell of rain followed by showers. Temperatures falling slightly.

Nearby METAR/TAF

Stansted (EGSS)


Current conditions: IFR

METAR: EGSS 190150Z AUTO 10007KT 4400 HZ NCD 16/15 Q1013

TAF: TAF EGSS 182305Z 1900/2006 12006KT 6000 FEW040 TEMPO 1900/1906 2000 BR MIFG BECMG 1906/1909 9999 TEMPO 1909/2002 6000 RA SHRA PROB40 TEMPO 1911/2001 4000 +SHRA BKN008 BECMG 1912/1915 30010KT BECMG 2001/2004 SCT004 BKN008 PROB40 2003/2006 3000 BR BKN004

Southend (EGMC)


Current conditions: VFR

METAR: EGMC 190150Z 05002KT CAVOK 14/13 Q1013

TAF: TAF EGMC 190155Z 1903/1912 06005KT 9999 FEW045 PROB30 1903/1908 8000 PROB30 TEMPO 1910/1912 6000 RA SHRA

RAF Wattisham (EGUW)


Current conditions: VFR

METAR: EGUW 190150Z AUTO 13004KT 9999 FEW050/// BKN110/// 16/14 Q1013

TAF: